Crystal City, Virginia
Current Conditions -  °F | °C
As of 6:52 AM on Thursday 18 Dec 2014 (Local Time) from KDCA Reporting Station
Scattered Clouds Scattered Clouds  
Wind Chill: 30°   Ceiling: Unl
Heat Index: 38°   Visibility: 10mi
Dew Point: 19°   Wind: 13mph
Humidity: 47%   Direction: 330°NNW
Pressure: 30.15"   Gusts: 22mph
Location:  38.8565°N, 77.0512°W
Report Text: KDCA 181152Z 33011G19KT 10SM SCT042 03/M07 A3015 RMK AO2 SLP209 T00331072 10050 20033 53014
Loading
Personal Weather Stations






























Interactive Weather Map New forecast layout! Learn more

10-Day Weather Forecast

Advertisements
Track Severe Weather on mobile